weather.gov     
National Weather Service

Terminal Aerodrome Forecast
NWS Homepage
This page is being discontinued on March 12, 2014.
The same data is available at this site. Please update your bookmarks.
Thank you, and we apologize for the inconvenience.
Please send an email to SR-SRH.Webmaster@noaa.gov with any concerns.


Current Version
Previous Version:    01  02  03  04  05  06  07  08  09  10  11  12  13  14  15  16  17  18  19  20  21  22  23  24  25  26  27  
[Printable]
450
FTUS45 KGJT 221138
TAFTEX
TAF
KTEX 221138Z 2212/2312 11005KT P6SM SCT200
     FM221900 18006KT P6SM SCT080 BKN120
     FM222200 23008KT P6SM SCT060 BKN080
     FM230300 19008G18KT 3SM -SN BR BKN030
     FM230700 30008G15KT 2SM -SN BR OVC020=


450
FTUS45 KGJT 221138
TAFTEX
TAF
KTEX 221138Z 2212/2312 11005KT P6SM SCT200
     FM221900 18006KT P6SM SCT080 BKN120
     FM222200 23008KT P6SM SCT060 BKN080
     FM230300 19008G18KT 3SM -SN BR BKN030
     FM230700 30008G15KT 2SM -SN BR OVC020=




U.S. Dept. of Commerce
NOAA National Weather Service
1325 East West Highway
Silver Spring, MD 20910
E-mail: w-nws.webmaster@noaa.gov
Page last modified: May 16, 2007
NATIONAL WEATHER SERVICE: for Safety, for Work, for Fun - FOR LIFE